createdAt,value
2023-05-30T00:00:46.394Z,10.78
2023-05-30T00:10:49.375Z,10.65
2023-05-30T00:20:54.423Z,10.44
2023-05-30T00:30:57.867Z,10.26
2023-05-30T00:41:03.553Z,10.10
2023-05-30T00:51:12.026Z,10.11
2023-05-30T01:01:16.624Z,9.99
2023-05-30T01:11:28.111Z,9.87
2023-05-30T01:21:34.556Z,9.74
2023-05-30T01:31:39.005Z,9.60
2023-05-30T01:41:51.907Z,9.52
2023-05-30T01:52:01.017Z,9.39
2023-05-30T02:02:04.917Z,9.39
2023-05-30T02:12:10.571Z,9.37
2023-05-30T02:22:13.572Z,9.24
2023-05-30T02:32:17.992Z,9.26
2023-05-30T02:42:21.607Z,9.14
2023-05-30T02:52:26.198Z,9.15
2023-05-30T03:02:35.451Z,9.04
2023-05-30T03:12:43.750Z,8.99
2023-05-30T03:22:47.581Z,9.01
2023-05-30T03:32:53.635Z,9.10
2023-05-30T03:42:57.357Z,9.27
2023-05-30T03:53:02.003Z,9.43
2023-05-30T04:03:05.306Z,9.46
2023-05-30T04:13:09.735Z,9.64
2023-05-30T04:23:14.733Z,9.86
2023-05-30T04:33:19.685Z,10.13
2023-05-30T04:43:23.846Z,10.21
2023-05-30T04:53:28.751Z,10.40
2023-05-30T05:03:34.085Z,10.67
2023-05-30T05:13:38.657Z,10.90
2023-05-30T05:23:41.621Z,11.08
2023-05-30T05:33:45.955Z,11.30
2023-05-30T05:43:48.922Z,11.62
2023-05-30T05:53:53.316Z,11.70
2023-05-30T06:03:57.422Z,11.62
2023-05-30T06:14:16.796Z,11.99
2023-05-30T06:24:22.068Z,12.03
2023-05-30T06:34:26.718Z,12.28
2023-05-30T06:44:30.495Z,12.39
2023-05-30T06:54:39.374Z,12.76
2023-05-30T07:04:43.810Z,13.10
2023-05-30T07:14:51.718Z,13.82
2023-05-30T07:25:04.070Z,14.26
2023-05-30T07:35:13.114Z,13.22
2023-05-30T07:45:18.683Z,13.79
2023-05-30T07:55:24.457Z,14.91
2023-05-30T08:05:31.904Z,14.12
2023-05-30T08:15:38.213Z,13.89
2023-05-30T08:25:46.793Z,14.51
2023-05-30T08:35:52.600Z,14.63
2023-05-30T08:45:57.405Z,15.13
2023-05-30T08:56:18.127Z,14.75
2023-05-30T09:06:29.166Z,15.57
2023-05-30T09:16:34.510Z,15.96
2023-05-30T09:26:38.601Z,16.12
2023-05-30T09:36:44.201Z,16.21
2023-05-30T09:46:48.702Z,16.75
2023-05-30T09:56:55.195Z,17.11
2023-05-30T10:06:58.446Z,17.61
2023-05-30T10:17:06.503Z,17.60
2023-05-30T10:27:12.820Z,18.09
2023-05-30T10:37:18.297Z,18.45
2023-05-30T10:47:32.348Z,18.18
2023-05-30T10:57:37.125Z,18.44
2023-05-30T11:07:42.467Z,18.70
2023-05-30T11:17:47.227Z,19.36
2023-05-30T11:28:34.430Z,19.68
2023-05-30T11:38:45.245Z,19.56
2023-05-30T11:48:48.375Z,19.92
2023-05-30T11:58:53.374Z,19.62
2023-05-30T12:08:56.491Z,19.64
2023-05-30T12:19:02.336Z,20.39
2023-05-30T12:29:10.266Z,20.78
2023-05-30T12:39:15.985Z,21.28
2023-05-30T12:49:21.163Z,20.97
2023-05-30T12:59:27.420Z,21.48
2023-05-30T13:09:31.727Z,21.97
2023-05-30T13:19:37.648Z,21.92
2023-05-30T13:29:41.314Z,21.65
2023-05-30T13:39:48.466Z,22.50
2023-05-30T13:49:53.269Z,23.44
2023-05-30T13:59:57.623Z,23.46
2023-05-30T14:10:00.881Z,23.11
2023-05-30T14:20:07.955Z,23.35
2023-05-30T14:30:14.829Z,23.59
2023-05-30T14:40:19.242Z,24.27
2023-05-30T14:50:23.348Z,22.91
2023-05-30T15:00:28.662Z,22.82
2023-05-30T15:10:31.799Z,22.11
2023-05-30T15:20:36.156Z,21.62
2023-05-30T15:30:39.162Z,20.99
2023-05-30T15:40:44.412Z,20.50
2023-05-30T15:50:48.727Z,20.09
2023-05-30T16:00:54.143Z,19.87
2023-05-30T16:10:58.545Z,19.70
2023-05-30T16:21:04.461Z,19.41
2023-05-30T16:31:07.901Z,19.36
2023-05-30T16:41:14.386Z,19.28
2023-05-30T16:51:19.424Z,19.25
2023-05-30T17:01:24.018Z,19.18
2023-05-30T17:11:27.699Z,18.87
2023-05-30T17:21:32.299Z,18.71
2023-05-30T17:31:35.719Z,18.45
2023-05-30T17:41:40.976Z,18.18
2023-05-30T17:51:44.235Z,17.89
2023-05-30T18:01:48.677Z,17.86
2023-05-30T18:11:51.590Z,17.62
2023-05-30T18:21:55.920Z,17.37
2023-05-30T18:31:58.994Z,17.09
2023-05-30T18:42:04.309Z,17.00
2023-05-30T18:52:08.877Z,16.82
2023-05-30T19:02:14.489Z,16.62
2023-05-30T19:12:21.517Z,16.45
2023-05-30T19:22:33.029Z,16.27
2023-05-30T19:32:37.552Z,15.91
2023-05-30T19:42:42.171Z,15.62
2023-05-30T19:52:46.139Z,15.47
2023-05-30T20:02:50.566Z,15.29
2023-05-30T20:12:53.520Z,15.13
2023-05-30T20:22:58.441Z,14.95
2023-05-30T20:33:02.887Z,14.66
2023-05-30T20:43:07.385Z,14.63
2023-05-30T20:53:12.695Z,14.41
2023-05-30T21:03:17.160Z,14.34
2023-05-30T21:13:20.241Z,14.31
2023-05-30T21:23:24.624Z,14.03
2023-05-30T21:33:27.614Z,13.84
2023-05-30T21:43:32.007Z,13.80
2023-05-30T21:53:35.144Z,13.69
2023-05-30T22:03:40.161Z,13.61
2023-05-30T22:13:43.317Z,13.53
2023-05-30T22:23:47.695Z,13.36
2023-05-30T22:33:50.739Z,13.32
2023-05-30T22:43:55.179Z,13.24
2023-05-30T22:53:58.819Z,13.17
2023-05-30T23:04:03.687Z,13.04
2023-05-30T23:14:06.475Z,12.95
2023-05-30T23:24:10.885Z,12.84
2023-05-30T23:34:14.487Z,12.80
2023-05-30T23:44:20.773Z,12.70
2023-05-30T23:54:23.828Z,12.63
